Brooklyn, Mississippi
Current Conditions -  °F | °C
As of 3:53 PM on Tuesday 25 Nov 2014 (Local Time) from KHBG Reporting Station
Broken Clouds Broken Clouds  
Wind Chill: 53°   Ceiling: 12000
Heat Index: 53°   Visibility: 10mi
Dew Point: 33°   Wind: 9mph
Humidity: 47%   Direction: 320°NW
Pressure: 30.15"   Gusts: NA
Location:  31.06°N, 89.19°W
Report Text: KHBG 252153Z AUTO 32008KT 10SM BKN120 12/01 A3015 RMK AO2 SLP209 T01170006
Loading
Personal Weather Stations






























Interactive Weather Map New forecast layout! Learn more

10-Day Weather Forecast

Advertisements
Track Severe Weather on mobile